Terminal Aerodrome Forecast
Issued by NWS

Home | Current Version | Previous Version | Graphics & Text | Print | Product List | Glossary On
Versions: 1 2 3 4 5 6 7 8 9 10 11 12 13 14 15 16 17
000
FTUS43 KFGF 191144 CCA
TAFBJI
TAF COR
KBJI 191144Z 1912/2012 VRB03KT P6SM SKC
      TEMPO 1912/1914 2SM BR OVC009
     FM191500 17006KT P6SM FEW200
     FM191800 20010G17KT P6SM VCTS BKN120CB
     FM192100 18008KT P6SM BKN200
     FM200200 16004KT P6SM SCT150
     FM200700 VRB04KT P6SM FEW150=

USA.gov is the U.S. government's official web portal to all federal, state and local government web resources and services.